createdAt,value
2022-11-24T00:01:28.713Z,2.70
2022-11-24T00:06:31.702Z,2.70
2022-11-24T00:11:36.502Z,2.70
2022-11-24T00:16:39.167Z,2.70
2022-11-24T00:21:40.950Z,2.80
2022-11-24T00:26:43.224Z,2.80
2022-11-24T00:31:44.936Z,2.80
2022-11-24T00:36:46.645Z,2.90
2022-11-24T00:41:48.422Z,2.90
2022-11-24T00:46:50.265Z,2.90
2022-11-24T00:51:52.128Z,2.90
2022-11-24T00:56:53.841Z,3.00
2022-11-24T01:01:55.659Z,3.00
2022-11-24T01:06:57.420Z,3.00
2022-11-24T01:12:01.907Z,3.00
2022-11-24T01:17:04.128Z,3.00
2022-11-24T01:22:06.332Z,3.10
2022-11-24T01:27:08.721Z,3.10
2022-11-24T01:32:10.521Z,3.10
2022-11-24T01:37:12.236Z,3.10
2022-11-24T01:42:13.944Z,3.10
2022-11-24T01:47:40.711Z,3.20
2022-11-24T01:52:46.988Z,3.10
2022-11-24T01:58:13.887Z,3.20
2022-11-24T02:03:20.354Z,3.20
2022-11-24T02:08:40.854Z,3.20
2022-11-24T02:13:43.885Z,3.20
2022-11-24T02:18:45.876Z,3.30
2022-11-24T02:24:07.240Z,3.20
2022-11-24T02:29:10.387Z,3.30
2022-11-24T02:34:12.194Z,3.30
2022-11-24T02:39:14.889Z,3.30
2022-11-24T02:44:19.281Z,3.30
2022-11-24T02:49:21.017Z,3.30
2022-11-24T02:54:23.284Z,3.30
2022-11-24T02:59:25.035Z,3.40
2022-11-24T03:04:26.896Z,3.30
2022-11-24T03:09:28.646Z,3.40
2022-11-24T03:14:30.393Z,3.40
2022-11-24T03:19:32.963Z,3.40
2022-11-24T03:24:34.980Z,3.40
2022-11-24T03:29:36.831Z,3.40
2022-11-24T03:34:38.555Z,3.40
2022-11-24T03:39:40.278Z,3.40
2022-11-24T03:44:42.036Z,3.40
2022-11-24T03:49:43.775Z,3.50
2022-11-24T03:54:47.710Z,3.50
2022-11-24T03:59:49.458Z,3.50
2022-11-24T04:04:52.516Z,3.50
2022-11-24T04:09:54.221Z,3.50
2022-11-24T04:14:55.916Z,3.50
2022-11-24T04:19:57.641Z,3.50
2022-11-24T04:24:59.368Z,3.50
2022-11-24T04:30:01.126Z,3.60
2022-11-24T04:35:04.064Z,3.60
2022-11-24T04:40:07.534Z,3.60
2022-11-24T04:45:10.728Z,3.60
2022-11-24T04:50:12.484Z,3.60
2022-11-24T04:55:14.237Z,3.60
2022-11-24T05:00:16.337Z,3.60
2022-11-24T05:05:18.134Z,3.60
2022-11-24T05:10:35.310Z,3.70
2022-11-24T05:15:38.186Z,3.60
2022-11-24T05:20:40.000Z,3.70
2022-11-24T05:25:47.275Z,3.70
2022-11-24T05:30:49.345Z,3.80
2022-11-24T05:35:51.329Z,3.80
2022-11-24T05:40:53.066Z,3.90
2022-11-24T05:45:54.784Z,3.90
2022-11-24T05:50:57.872Z,3.90
2022-11-24T05:56:03.561Z,4.00
2022-11-24T06:01:08.446Z,4.00
2022-11-24T06:06:11.111Z,4.00
2022-11-24T06:11:18.792Z,4.00
2022-11-24T06:16:20.475Z,4.10
2022-11-24T06:21:22.242Z,4.10
2022-11-24T06:26:23.985Z,4.10
2022-11-24T06:31:25.927Z,4.20
2022-11-24T06:36:28.256Z,4.30
2022-11-24T06:41:29.976Z,4.30
2022-11-24T06:46:32.202Z,4.40
2022-11-24T06:51:33.927Z,4.40
2022-11-24T06:56:36.404Z,4.50
2022-11-24T07:01:38.319Z,4.60
2022-11-24T07:06:41.293Z,4.60
2022-11-24T07:11:43.056Z,4.70
2022-11-24T07:16:44.841Z,4.70
2022-11-24T07:21:46.599Z,4.70
2022-11-24T07:26:48.341Z,4.70
2022-11-24T07:31:50.262Z,4.90
2022-11-24T07:36:52.171Z,4.90
2022-11-24T07:41:53.904Z,4.90
2022-11-24T07:46:55.677Z,5.00
2022-11-24T07:51:57.498Z,5.10
2022-11-24T07:56:59.224Z,5.00
2022-11-24T08:02:01.002Z,5.10
2022-11-24T08:07:02.944Z,5.00
2022-11-24T08:12:05.213Z,5.10
2022-11-24T08:17:07.129Z,5.20
2022-11-24T08:22:09.131Z,5.20
2022-11-24T08:27:10.865Z,5.20
2022-11-24T08:32:16.221Z,5.30
2022-11-24T08:37:22.278Z,5.30
2022-11-24T08:42:24.092Z,5.40
2022-11-24T08:47:25.835Z,5.40
2022-11-24T08:52:27.640Z,5.40
2022-11-24T08:57:29.689Z,5.50
2022-11-24T09:02:31.461Z,5.40
2022-11-24T09:07:33.456Z,5.50
2022-11-24T09:12:35.225Z,5.50
2022-11-24T09:17:37.116Z,5.50
2022-11-24T09:22:41.084Z,5.50
2022-11-24T09:27:42.850Z,5.60
2022-11-24T09:32:44.615Z,5.60
2022-11-24T09:37:48.205Z,5.70
2022-11-24T09:43:02.915Z,5.70
2022-11-24T09:48:12.344Z,5.80
2022-11-24T09:53:17.134Z,5.80
2022-11-24T09:58:36.945Z,5.80
2022-11-24T10:03:43.549Z,5.80
2022-11-24T10:09:00.138Z,5.90
2022-11-24T10:14:20.117Z,5.90
2022-11-24T10:19:56.303Z,5.90
2022-11-24T10:25:09.187Z,6.00
2022-11-24T10:30:19.803Z,6.00
2022-11-24T10:35:36.736Z,6.00
2022-11-24T10:40:59.293Z,6.10
2022-11-24T10:46:15.005Z,6.10
2022-11-24T10:51:38.636Z,6.10
2022-11-24T10:56:42.373Z,6.20
2022-11-24T11:01:44.222Z,6.20
2022-11-24T11:06:46.186Z,6.20
2022-11-24T11:11:49.028Z,6.20
2022-11-24T11:16:53.315Z,6.20
2022-11-24T11:22:20.883Z,6.20
2022-11-24T11:27:25.075Z,6.20
2022-11-24T11:37:52.622Z,6.20
2022-11-24T11:43:24.731Z,6.20
2022-11-24T11:48:43.366Z,6.20
2022-11-24T11:54:18.368Z,6.20
2022-11-24T11:59:32.276Z,6.20
2022-11-24T12:04:56.598Z,6.20
2022-11-24T12:10:10.428Z,6.30
2022-11-24T12:15:47.380Z,6.20
2022-11-24T12:21:11.273Z,6.30
2022-11-24T12:26:41.120Z,6.30
2022-11-24T12:31:59.588Z,6.40
2022-11-24T12:37:24.876Z,6.30
2022-11-24T12:42:36.647Z,6.30
2022-11-24T12:48:20.255Z,6.30
2022-11-24T12:53:37.345Z,6.40
2022-11-24T12:58:50.656Z,6.40
2022-11-24T13:04:03.605Z,6.30
2022-11-24T13:09:10.039Z,6.30
2022-11-24T13:14:43.608Z,6.40
2022-11-24T13:19:46.184Z,6.30
2022-11-24T13:25:11.647Z,6.40
2022-11-24T13:30:35.285Z,6.40
2022-11-24T13:35:38.374Z,6.40
2022-11-24T13:40:54.271Z,6.40
2022-11-24T13:46:03.715Z,6.30
2022-11-24T13:51:21.262Z,6.20
2022-11-24T13:56:26.344Z,6.20
2022-11-24T14:01:32.990Z,6.20
2022-11-24T14:06:44.895Z,6.20
2022-11-24T14:12:01.695Z,6.10
2022-11-24T14:17:24.631Z,6.10
2022-11-24T14:22:38.127Z,6.10
2022-11-24T14:27:40.117Z,6.10
2022-11-24T14:32:56.007Z,6.10
2022-11-24T14:37:58.818Z,6.10
2022-11-24T14:43:00.767Z,6.10
2022-11-24T14:48:02.575Z,6.10
2022-11-24T14:53:10.591Z,6.10
2022-11-24T14:58:30.525Z,6.10
2022-11-24T15:03:32.280Z,6.20
2022-11-24T15:08:46.489Z,6.20
2022-11-24T15:13:54.208Z,6.10
2022-11-24T15:19:01.447Z,6.20
2022-11-24T15:24:18.402Z,6.10
2022-11-24T15:29:20.193Z,6.20
2022-11-24T15:34:21.961Z,6.10
2022-11-24T15:39:23.707Z,6.10
2022-11-24T15:44:25.529Z,6.10
2022-11-24T15:49:27.280Z,6.10
2022-11-24T15:54:29.589Z,6.00
2022-11-24T15:59:31.348Z,6.00
2022-11-24T16:04:33.536Z,5.90
2022-11-24T16:09:35.576Z,6.00
2022-11-24T16:14:37.719Z,6.00
2022-11-24T16:19:42.046Z,5.90
2022-11-24T16:24:44.159Z,5.90
2022-11-24T16:29:46.012Z,5.90
2022-11-24T16:34:47.774Z,5.90
2022-11-24T16:39:50.456Z,5.90
2022-11-24T16:44:52.344Z,5.90
2022-11-24T16:49:54.120Z,5.90
2022-11-24T16:54:55.912Z,5.90
2022-11-24T16:59:57.684Z,5.90
2022-11-24T17:04:59.432Z,5.90
2022-11-24T17:10:01.203Z,5.90
2022-11-24T17:15:31.239Z,5.90
2022-11-24T17:20:25.469Z,5.90
2022-11-24T17:25:27.211Z,5.90
2022-11-24T17:30:28.968Z,5.90
2022-11-24T17:35:30.797Z,5.90
2022-11-24T17:40:32.578Z,5.90
2022-11-24T17:45:34.386Z,5.90
2022-11-24T17:50:36.186Z,5.90
2022-11-24T17:55:37.969Z,5.90
2022-11-24T18:00:39.740Z,5.90
2022-11-24T18:05:42.748Z,5.90
2022-11-24T18:10:44.586Z,5.90
2022-11-24T18:15:46.315Z,5.90
2022-11-24T18:20:59.546Z,5.80
2022-11-24T18:26:03.740Z,5.80
2022-11-24T18:31:08.171Z,5.80
2022-11-24T18:36:15.969Z,5.80
2022-11-24T18:41:18.201Z,5.80
2022-11-24T18:46:20.260Z,5.80
2022-11-24T18:51:23.657Z,5.80
2022-11-24T18:56:26.580Z,5.70
2022-11-24T19:01:29.529Z,5.80
2022-11-24T19:06:36.384Z,5.70
2022-11-24T19:11:41.623Z,5.70
2022-11-24T19:16:45.013Z,5.70
2022-11-24T19:21:47.626Z,5.70
2022-11-24T19:26:51.575Z,5.60
2022-11-24T19:31:55.701Z,5.60
2022-11-24T19:36:58.387Z,5.60
2022-11-24T19:42:01.090Z,5.60
2022-11-24T19:47:03.742Z,5.60
2022-11-24T19:52:07.757Z,5.60
2022-11-24T19:57:10.415Z,5.60
2022-11-24T20:02:13.062Z,5.50
2022-11-24T20:07:16.476Z,5.50
2022-11-24T20:12:19.153Z,5.50
2022-11-24T20:17:21.810Z,5.50
2022-11-24T20:22:24.431Z,5.50
2022-11-24T20:27:26.979Z,5.50
2022-11-24T20:32:29.877Z,5.50
2022-11-24T20:37:33.709Z,5.40
2022-11-24T20:42:37.617Z,5.40
2022-11-24T20:47:40.134Z,5.40
2022-11-24T20:52:44.408Z,5.40
2022-11-24T20:57:46.902Z,5.40
2022-11-24T21:02:49.433Z,5.40
2022-11-24T21:07:51.989Z,5.40
2022-11-24T21:12:54.450Z,5.40
2022-11-24T21:17:57.101Z,5.30
2022-11-24T21:22:59.332Z,5.30
2022-11-24T21:28:01.177Z,5.30
2022-11-24T21:33:06.299Z,5.40
2022-11-24T21:38:08.300Z,5.30
2022-11-24T21:43:10.088Z,5.30
2022-11-24T21:48:11.860Z,5.30
2022-11-24T21:53:13.758Z,5.30
2022-11-24T21:58:15.495Z,5.30
2022-11-24T22:03:18.303Z,5.30
2022-11-24T22:08:20.369Z,5.30
2022-11-24T22:13:22.410Z,5.30
2022-11-24T22:18:24.128Z,5.30
2022-11-24T22:23:26.171Z,5.30
2022-11-24T22:28:31.076Z,5.30
2022-11-24T22:33:33.711Z,5.20
2022-11-24T22:38:35.867Z,5.30
2022-11-24T22:43:39.778Z,5.20
2022-11-24T22:48:42.580Z,5.20
2022-11-24T22:53:55.045Z,5.20
2022-11-24T22:59:01.528Z,5.20
2022-11-24T23:04:03.897Z,5.30
2022-11-24T23:09:06.375Z,5.20
2022-11-24T23:14:12.613Z,5.20
2022-11-24T23:19:14.548Z,5.20
2022-11-24T23:24:16.435Z,5.20
2022-11-24T23:29:18.179Z,5.20
2022-11-24T23:34:19.931Z,5.10
2022-11-24T23:39:21.684Z,5.10
2022-11-24T23:44:23.460Z,5.10
2022-11-24T23:49:25.247Z,5.10
2022-11-24T23:54:27.063Z,5.10
2022-11-24T23:59:29.200Z,5.10
